createdAt,value
2022-08-28T00:00:14.489Z,1.61
2022-08-28T00:02:40.951Z,1.73
2022-08-28T00:05:07.418Z,1.67
2022-08-28T00:07:33.811Z,1.62
2022-08-28T00:10:00.174Z,1.59
2022-08-28T00:12:26.552Z,1.77
2022-08-28T00:14:52.902Z,1.78
2022-08-28T00:17:19.272Z,1.76
2022-08-28T00:19:45.632Z,1.64
2022-08-28T00:22:11.995Z,1.71
2022-08-28T00:24:38.374Z,1.80
2022-08-28T00:27:04.737Z,1.79
2022-08-28T00:29:31.093Z,1.79
2022-08-28T00:31:57.440Z,1.71
2022-08-28T00:34:33.068Z,1.77
2022-08-28T00:37:00.077Z,1.76
2022-08-28T00:39:26.430Z,1.69
2022-08-28T00:41:57.895Z,1.66
2022-08-28T00:44:24.554Z,1.78
2022-08-28T00:46:50.963Z,1.73
2022-08-28T00:49:17.348Z,1.83
2022-08-28T00:51:43.706Z,1.85
2022-08-28T00:54:10.086Z,2.02
2022-08-28T00:56:36.452Z,1.87
2022-08-28T00:59:02.892Z,1.92
2022-08-28T01:01:29.305Z,1.79
2022-08-28T01:03:55.727Z,1.84
2022-08-28T01:06:22.083Z,1.79
2022-08-28T01:08:50.692Z,1.74
2022-08-28T01:11:17.175Z,1.90
2022-08-28T01:13:43.569Z,1.97
2022-08-28T01:16:10.045Z,1.94
2022-08-28T01:18:36.451Z,2.06
2022-08-28T01:21:02.810Z,1.75
2022-08-28T01:23:29.165Z,1.89
2022-08-28T01:25:55.522Z,2.07
2022-08-28T01:28:21.915Z,1.90
2022-08-28T01:30:48.361Z,1.91
2022-08-28T01:33:14.804Z,1.83
2022-08-28T01:35:41.174Z,1.87
2022-08-28T01:38:07.526Z,1.92
2022-08-28T01:40:33.952Z,1.76
2022-08-28T01:43:00.399Z,1.82
2022-08-28T01:45:26.781Z,1.95
2022-08-28T01:47:55.326Z,1.99
2022-08-28T01:50:21.684Z,2.15
2022-08-28T01:52:48.038Z,1.97
2022-08-28T01:55:14.387Z,1.82
2022-08-28T01:57:41.072Z,1.85
2022-08-28T02:00:07.428Z,1.98
2022-08-28T02:02:33.784Z,1.84
2022-08-28T02:05:00.156Z,1.89
2022-08-28T02:07:26.572Z,1.65
2022-08-28T02:09:52.942Z,1.86
2022-08-28T02:12:19.296Z,1.88
2022-08-28T02:14:45.653Z,2.10
2022-08-28T02:17:11.998Z,2.06
2022-08-28T02:19:38.377Z,2.10
2022-08-28T02:22:04.729Z,1.93
2022-08-28T02:24:31.107Z,1.94
2022-08-28T02:26:57.457Z,2.04
2022-08-28T02:29:23.820Z,1.94
2022-08-28T02:31:50.159Z,1.87
2022-08-28T02:34:17.587Z,1.96
2022-08-28T02:36:44.000Z,2.07
2022-08-28T02:39:10.378Z,1.97
2022-08-28T02:41:36.765Z,2.32
2022-08-28T02:44:03.141Z,1.92
2022-08-28T02:46:29.591Z,1.73
2022-08-28T02:48:56.003Z,1.84
2022-08-28T02:51:22.422Z,1.90
2022-08-28T02:53:48.773Z,2.07
2022-08-28T02:56:15.143Z,1.93
2022-08-28T02:58:41.501Z,1.99
2022-08-28T03:01:07.920Z,2.07
2022-08-28T03:03:34.314Z,2.07
2022-08-28T03:06:01.342Z,2.14
2022-08-28T03:08:27.703Z,2.10
2022-08-28T03:10:54.071Z,2.04
2022-08-28T03:13:26.697Z,1.93
2022-08-28T03:15:55.600Z,1.77
2022-08-28T03:18:22.449Z,2.02
2022-08-28T03:20:48.801Z,2.01
2022-08-28T03:23:15.155Z,2.14
2022-08-28T03:25:41.515Z,2.10
2022-08-28T03:28:07.863Z,1.93
2022-08-28T03:30:34.265Z,1.90
2022-08-28T03:33:00.678Z,2.02
2022-08-28T03:35:27.031Z,2.01
2022-08-28T03:37:53.390Z,1.96
2022-08-28T03:40:19.775Z,1.95
2022-08-28T03:42:51.298Z,2.11
2022-08-28T03:45:20.041Z,2.02
2022-08-28T03:47:46.439Z,1.98
2022-08-28T03:50:12.795Z,2.01
2022-08-28T03:52:39.138Z,2.11
2022-08-28T03:55:05.515Z,1.87
2022-08-28T03:57:31.873Z,1.81
2022-08-28T03:59:58.228Z,1.90
2022-08-28T04:02:24.573Z,2.20
2022-08-28T04:04:50.963Z,1.94
2022-08-28T04:07:17.348Z,2.07
2022-08-28T04:09:43.740Z,2.09
2022-08-28T04:12:10.125Z,2.00
2022-08-28T04:14:36.474Z,2.11
2022-08-28T04:17:02.950Z,2.05
2022-08-28T04:19:29.347Z,2.01
2022-08-28T04:21:55.696Z,2.12
2022-08-28T04:24:22.061Z,2.11
2022-08-28T04:26:48.409Z,1.89
2022-08-28T04:29:14.771Z,2.08
2022-08-28T04:31:41.202Z,1.98
2022-08-28T04:34:07.614Z,2.13
2022-08-28T04:36:33.986Z,2.25
2022-08-28T04:39:00.334Z,1.99
2022-08-28T04:41:26.710Z,1.90
2022-08-28T04:43:53.066Z,1.92
2022-08-28T04:46:19.537Z,2.18
2022-08-28T04:48:45.948Z,2.24
2022-08-28T04:51:12.293Z,2.01
2022-08-28T04:53:38.661Z,1.92
2022-08-28T04:56:05.015Z,1.95
2022-08-28T04:58:31.370Z,1.97
2022-08-28T05:00:57.821Z,2.07
2022-08-28T05:03:24.284Z,1.95
2022-08-28T05:05:50.649Z,1.89
2022-08-28T05:08:16.996Z,2.07
2022-08-28T05:10:43.354Z,2.06
2022-08-28T05:13:09.714Z,2.21
2022-08-28T05:15:36.070Z,2.11
2022-08-28T05:18:02.414Z,2.16
2022-08-28T05:20:28.763Z,2.06
2022-08-28T05:22:55.136Z,2.08
2022-08-28T05:25:21.490Z,2.07
2022-08-28T05:27:47.840Z,2.09
2022-08-28T05:30:14.198Z,1.86
2022-08-28T05:32:40.552Z,1.87
2022-08-28T05:35:06.903Z,2.13
2022-08-28T05:37:33.265Z,2.17
2022-08-28T05:39:59.912Z,2.08
2022-08-28T05:42:30.649Z,1.99
2022-08-28T05:44:57.786Z,2.02
2022-08-28T05:47:24.136Z,1.93
2022-08-28T05:49:50.495Z,2.03
2022-08-28T05:52:18.692Z,2.08
2022-08-28T05:54:45.066Z,1.88
2022-08-28T05:57:11.417Z,2.07
2022-08-28T05:59:37.772Z,2.27
2022-08-28T06:02:04.596Z,1.99
2022-08-28T06:04:31.084Z,2.05
2022-08-28T06:06:57.484Z,1.91
2022-08-28T06:09:28.692Z,1.98
2022-08-28T06:11:55.886Z,2.03
2022-08-28T06:14:23.561Z,2.11
2022-08-28T06:16:52.011Z,1.98
2022-08-28T06:19:18.362Z,1.94
2022-08-28T06:21:44.743Z,2.15
2022-08-28T06:24:11.099Z,2.26
2022-08-28T06:26:37.446Z,2.06
2022-08-28T06:29:03.808Z,1.92
2022-08-28T06:31:33.446Z,2.02
2022-08-28T06:34:00.148Z,1.93
2022-08-28T06:36:26.525Z,1.96
2022-08-28T06:38:52.882Z,1.97
2022-08-28T06:41:19.230Z,2.21
2022-08-28T06:43:45.570Z,1.94
2022-08-28T06:46:12.028Z,1.99
2022-08-28T06:48:38.426Z,2.12
2022-08-28T06:51:04.791Z,1.86
2022-08-28T06:53:31.133Z,1.97
2022-08-28T06:55:57.482Z,1.85
2022-08-28T06:58:24.462Z,2.02
2022-08-28T07:00:58.147Z,2.05
2022-08-28T07:03:27.318Z,1.92
2022-08-28T07:05:53.692Z,1.92
2022-08-28T07:08:20.064Z,1.91
2022-08-28T07:10:46.418Z,1.81
2022-08-28T07:13:12.970Z,2.16
2022-08-28T07:15:41.910Z,2.09
2022-08-28T07:18:08.451Z,1.89
2022-08-28T07:20:34.820Z,2.13
2022-08-28T07:23:01.184Z,2.20
2022-08-28T07:25:27.544Z,2.04
2022-08-28T07:27:53.895Z,2.03
2022-08-28T07:30:20.247Z,2.15
2022-08-28T07:32:47.944Z,2.11
2022-08-28T07:35:14.323Z,2.10
2022-08-28T07:37:40.912Z,1.90
2022-08-28T07:40:07.430Z,2.08
2022-08-28T07:42:35.734Z,2.06
2022-08-28T07:45:02.184Z,2.12
2022-08-28T07:47:28.533Z,2.21
2022-08-28T07:49:54.881Z,2.15
2022-08-28T07:52:21.236Z,2.19
2022-08-28T07:54:47.582Z,2.01
2022-08-28T07:57:13.949Z,2.12
2022-08-28T07:59:40.329Z,2.05
2022-08-28T08:02:08.753Z,1.80
2022-08-28T08:04:35.104Z,2.21
2022-08-28T08:07:01.475Z,2.08
2022-08-28T08:09:28.645Z,2.12
2022-08-28T08:11:55.137Z,2.18
2022-08-28T08:14:21.509Z,1.93
2022-08-28T08:16:47.870Z,2.20
2022-08-28T08:19:14.220Z,2.11
2022-08-28T08:21:40.622Z,1.96
2022-08-28T08:24:06.999Z,2.01
2022-08-28T08:26:33.355Z,1.75
2022-08-28T08:28:59.715Z,2.14
2022-08-28T08:31:26.146Z,2.28
2022-08-28T08:33:52.522Z,1.77
2022-08-28T08:36:19.136Z,1.92
2022-08-28T08:38:45.493Z,2.02
2022-08-28T08:41:11.851Z,1.87
2022-08-28T08:43:38.212Z,1.91
2022-08-28T08:46:04.623Z,1.98
2022-08-28T08:48:31.025Z,2.00
2022-08-28T08:50:57.422Z,1.98
2022-08-28T08:53:23.773Z,2.15
2022-08-28T08:55:50.124Z,1.91
2022-08-28T08:58:16.493Z,2.17
2022-08-28T09:00:42.846Z,2.02
2022-08-28T09:03:09.240Z,1.90
2022-08-28T09:05:35.628Z,2.05
2022-08-28T09:08:01.984Z,2.12
2022-08-28T09:10:28.337Z,1.80
2022-08-28T09:12:54.686Z,1.99
2022-08-28T09:15:21.049Z,2.07
2022-08-28T09:17:47.405Z,2.02
2022-08-28T09:20:13.838Z,1.84
2022-08-28T09:22:40.194Z,1.96
2022-08-28T09:25:06.591Z,1.96
2022-08-28T09:27:33.966Z,2.09
2022-08-28T09:30:07.949Z,2.22
2022-08-28T09:32:34.525Z,2.02
2022-08-28T09:35:00.899Z,1.85
2022-08-28T09:37:27.276Z,2.24
2022-08-28T09:39:53.715Z,2.01
2022-08-28T09:42:20.094Z,1.98
2022-08-28T09:44:46.451Z,2.11
2022-08-28T09:47:17.782Z,2.12
2022-08-28T09:49:44.144Z,2.05
2022-08-28T09:52:10.501Z,2.10
2022-08-28T09:54:36.858Z,2.15
2022-08-28T09:57:03.217Z,2.17
2022-08-28T09:59:29.576Z,2.23
2022-08-28T10:01:55.946Z,1.98
2022-08-28T10:04:22.394Z,2.12
2022-08-28T10:06:48.793Z,2.02
2022-08-28T10:09:15.153Z,2.12
2022-08-28T10:11:44.306Z,2.07
2022-08-28T10:14:10.879Z,2.07
2022-08-28T10:16:37.230Z,2.14
2022-08-28T10:19:03.896Z,2.25
2022-08-28T10:21:30.256Z,2.09
2022-08-28T10:23:56.611Z,2.11
2022-08-28T10:26:22.963Z,2.04
2022-08-28T10:28:49.414Z,1.95
2022-08-28T10:31:15.840Z,2.14
2022-08-28T10:33:42.225Z,2.30
2022-08-28T10:36:08.575Z,2.38
2022-08-28T10:38:54.911Z,2.17
2022-08-28T10:41:21.295Z,2.08
2022-08-28T10:43:47.928Z,2.18
2022-08-28T10:46:14.600Z,2.16
2022-08-28T10:48:40.975Z,2.17
2022-08-28T10:51:07.339Z,2.20
2022-08-28T10:53:33.691Z,1.97
2022-08-28T10:56:00.044Z,2.04
2022-08-28T10:58:26.566Z,2.08
2022-08-28T11:00:53.012Z,2.29
2022-08-28T11:03:33.928Z,2.22
2022-08-28T11:06:01.313Z,2.22
2022-08-28T11:08:27.665Z,2.19
2022-08-28T11:10:54.014Z,2.30
2022-08-28T11:13:20.372Z,2.15
2022-08-28T11:15:46.742Z,2.39
2022-08-28T11:18:13.091Z,2.22
2022-08-28T11:20:39.450Z,2.15
2022-08-28T11:23:05.874Z,2.40
2022-08-28T11:25:33.035Z,2.29
2022-08-28T11:27:59.436Z,2.18
2022-08-28T11:30:25.835Z,2.24
2022-08-28T11:32:52.262Z,2.18
2022-08-28T11:35:18.609Z,2.24
2022-08-28T11:37:44.962Z,2.24
2022-08-28T11:40:11.354Z,2.49
2022-08-28T11:42:37.743Z,2.54
2022-08-28T11:45:04.119Z,2.41
2022-08-28T11:47:30.485Z,2.36
2022-08-28T11:49:56.855Z,2.51
2022-08-28T11:52:23.203Z,2.46
2022-08-28T11:54:49.563Z,2.34
2022-08-28T11:57:15.922Z,2.46
2022-08-28T11:59:42.273Z,2.38
2022-08-28T12:02:08.672Z,2.45
2022-08-28T12:04:35.119Z,2.53
2022-08-28T12:07:01.534Z,2.37
2022-08-28T12:09:27.910Z,2.61
2022-08-28T12:11:54.262Z,2.47
2022-08-28T12:14:20.603Z,2.38
2022-08-28T12:16:46.964Z,2.60
2022-08-28T12:19:13.355Z,2.49
2022-08-28T12:21:39.706Z,2.68
2022-08-28T12:24:09.134Z,2.48
2022-08-28T12:26:36.412Z,2.50
2022-08-28T12:29:02.776Z,2.53
2022-08-28T12:31:29.129Z,2.48
2022-08-28T12:33:55.476Z,2.75
2022-08-28T12:36:21.819Z,2.63
2022-08-28T12:38:48.171Z,2.56
2022-08-28T12:41:14.533Z,2.53
2022-08-28T12:43:46.389Z,2.60
2022-08-28T12:46:19.538Z,2.65
2022-08-28T12:48:46.445Z,2.57
2022-08-28T12:51:12.817Z,2.41
2022-08-28T12:53:39.171Z,2.64
2022-08-28T12:56:05.538Z,2.75
2022-08-28T12:58:31.892Z,2.76
2022-08-28T13:00:58.307Z,2.65
2022-08-28T13:03:24.689Z,2.64
2022-08-28T13:05:51.049Z,2.70
2022-08-28T13:08:17.396Z,2.83
2022-08-28T13:10:43.755Z,2.63
2022-08-28T13:13:10.098Z,2.91
2022-08-28T13:15:36.459Z,2.79
2022-08-28T13:18:02.814Z,2.63
2022-08-28T13:20:29.179Z,2.75
2022-08-28T13:22:55.538Z,2.80
2022-08-28T13:25:21.893Z,2.69
2022-08-28T13:27:48.258Z,2.77
2022-08-28T13:30:14.614Z,2.77
2022-08-28T13:32:40.961Z,2.69
2022-08-28T13:35:07.324Z,2.78
2022-08-28T13:37:33.686Z,2.96
2022-08-28T13:40:00.113Z,2.96
2022-08-28T13:42:26.514Z,2.87
2022-08-28T13:44:52.865Z,2.92
2022-08-28T13:47:19.211Z,2.78
2022-08-28T13:49:45.571Z,2.88
2022-08-28T13:52:11.930Z,3.02
2022-08-28T13:54:41.610Z,2.92
2022-08-28T13:57:10.175Z,2.87
2022-08-28T13:59:36.538Z,3.05
2022-08-28T14:02:04.388Z,3.05
2022-08-28T14:04:30.780Z,3.03
2022-08-28T14:06:57.135Z,2.88
2022-08-28T14:09:23.486Z,2.89
2022-08-28T14:11:50.287Z,3.04
2022-08-28T14:14:16.643Z,3.12
2022-08-28T14:16:43.031Z,3.06
2022-08-28T14:19:09.406Z,2.89
2022-08-28T14:21:35.765Z,3.06
2022-08-28T14:24:02.108Z,3.09
2022-08-28T14:26:28.471Z,2.88
2022-08-28T14:28:54.822Z,3.10
2022-08-28T14:31:21.207Z,2.99
2022-08-28T14:33:52.839Z,2.96
2022-08-28T14:36:19.184Z,2.95
2022-08-28T14:38:45.536Z,2.85
2022-08-28T14:41:11.892Z,2.89
2022-08-28T14:43:38.237Z,3.03
2022-08-28T14:46:08.306Z,3.15
2022-08-28T14:48:37.378Z,3.11
2022-08-28T14:51:03.743Z,2.86
2022-08-28T14:53:30.100Z,2.82
2022-08-28T14:55:56.461Z,2.95
2022-08-28T14:58:22.814Z,3.05
2022-08-28T15:00:49.214Z,3.02
2022-08-28T15:03:15.743Z,2.96
2022-08-28T15:05:42.263Z,2.97
2022-08-28T15:08:08.619Z,3.08
2022-08-28T15:10:34.969Z,2.96
2022-08-28T15:13:01.330Z,3.18
2022-08-28T15:15:28.020Z,3.28
2022-08-28T15:17:54.373Z,2.94
2022-08-28T15:20:20.731Z,2.85
2022-08-28T15:22:47.087Z,2.99
2022-08-28T15:25:13.444Z,2.94
2022-08-28T15:27:39.788Z,3.09
2022-08-28T15:30:06.149Z,2.91
2022-08-28T15:32:32.514Z,3.00
2022-08-28T15:34:58.876Z,3.15
2022-08-28T15:37:25.283Z,2.97
2022-08-28T15:39:51.845Z,3.18
2022-08-28T15:42:18.194Z,3.19
2022-08-28T15:44:44.557Z,3.02
2022-08-28T15:47:10.918Z,2.96
2022-08-28T15:49:43.491Z,3.18
2022-08-28T15:52:16.219Z,3.20
2022-08-28T15:54:42.591Z,3.05
2022-08-28T15:57:08.950Z,3.17
2022-08-28T15:59:47.892Z,3.26
2022-08-28T16:02:16.644Z,3.31
2022-08-28T16:04:43.058Z,3.04
2022-08-28T16:07:09.415Z,3.18
2022-08-28T16:09:35.770Z,3.24
2022-08-28T16:12:02.117Z,3.17
2022-08-28T16:14:28.467Z,3.11
2022-08-28T16:16:54.821Z,3.28
2022-08-28T16:19:21.173Z,3.06
2022-08-28T16:21:47.521Z,3.18
2022-08-28T16:24:13.880Z,3.26
2022-08-28T16:26:40.221Z,3.32
2022-08-28T16:29:06.565Z,3.34
2022-08-28T16:31:33.531Z,3.15
2022-08-28T16:33:59.937Z,3.22
2022-08-28T16:36:26.294Z,3.30
2022-08-28T16:38:52.930Z,3.14
2022-08-28T16:41:30.291Z,3.12
2022-08-28T16:43:58.379Z,2.97
2022-08-28T16:46:24.750Z,3.22
2022-08-28T16:48:51.109Z,3.49
2022-08-28T16:51:17.466Z,3.31
2022-08-28T16:53:43.828Z,3.46
2022-08-28T16:56:10.189Z,3.46
2022-08-28T16:58:36.563Z,3.11
2022-08-28T17:01:03.031Z,3.19
2022-08-28T17:03:29.453Z,3.25
2022-08-28T17:05:55.807Z,3.44
2022-08-28T17:08:22.158Z,3.47
2022-08-28T17:10:48.513Z,3.22
2022-08-28T17:13:14.870Z,3.22
2022-08-28T17:15:41.222Z,3.27
2022-08-28T17:18:07.574Z,3.25
2022-08-28T17:20:33.931Z,3.30
2022-08-28T17:23:00.289Z,3.46
2022-08-28T17:25:26.648Z,3.34
2022-08-28T17:27:53.003Z,3.32
2022-08-28T17:30:19.358Z,3.31
2022-08-28T17:32:45.702Z,3.13
2022-08-28T17:35:12.053Z,2.88
2022-08-28T17:37:38.412Z,3.31
2022-08-28T17:40:04.788Z,3.11
2022-08-28T17:42:31.233Z,3.39
2022-08-28T17:44:57.573Z,3.38
2022-08-28T17:47:27.497Z,3.17
2022-08-28T17:49:57.413Z,3.24
2022-08-28T17:52:23.766Z,3.05
2022-08-28T17:54:50.109Z,3.15
2022-08-28T17:57:16.480Z,3.33
2022-08-28T17:59:42.869Z,2.95
2022-08-28T18:02:09.329Z,3.01
2022-08-28T18:04:35.810Z,2.95
2022-08-28T18:07:02.185Z,3.27
2022-08-28T18:09:28.570Z,3.23
2022-08-28T18:11:54.930Z,3.15
2022-08-28T18:14:21.289Z,3.06
2022-08-28T18:16:47.742Z,3.29
2022-08-28T18:19:14.137Z,3.10
2022-08-28T18:21:40.512Z,3.00
2022-08-28T18:24:06.870Z,3.05
2022-08-28T18:26:33.222Z,3.01
2022-08-28T18:28:59.593Z,2.82
2022-08-28T18:31:25.993Z,2.97
2022-08-28T18:33:52.385Z,2.99
2022-08-28T18:36:18.742Z,2.81
2022-08-28T18:38:45.111Z,2.76
2022-08-28T18:41:11.491Z,3.01
2022-08-28T18:43:37.843Z,2.95
2022-08-28T18:46:04.264Z,3.11
2022-08-28T18:48:30.682Z,3.19
2022-08-28T18:50:57.038Z,2.94
2022-08-28T18:53:23.397Z,3.11
2022-08-28T18:55:52.774Z,3.04
2022-08-28T18:58:20.164Z,2.81
2022-08-28T19:00:46.551Z,2.82
2022-08-28T19:03:12.937Z,3.05
2022-08-28T19:05:39.845Z,2.81
2022-08-28T19:08:06.200Z,3.03
2022-08-28T19:10:34.705Z,2.87
2022-08-28T19:13:01.381Z,2.81
2022-08-28T19:15:27.727Z,2.91
2022-08-28T19:17:54.085Z,2.79
2022-08-28T19:20:20.434Z,2.97
2022-08-28T19:22:46.788Z,2.80
2022-08-28T19:25:17.216Z,2.81
2022-08-28T19:27:58.626Z,2.95
2022-08-28T19:30:25.648Z,2.73
2022-08-28T19:32:52.003Z,2.87
2022-08-28T19:35:18.363Z,2.80
2022-08-28T19:37:44.730Z,2.84
2022-08-28T19:40:11.098Z,3.02
2022-08-28T19:42:37.498Z,2.92
2022-08-28T19:45:03.857Z,2.76
2022-08-28T19:47:35.540Z,2.71
2022-08-28T19:50:02.235Z,2.95
2022-08-28T19:52:28.608Z,2.93
2022-08-28T19:54:55.471Z,2.92
2022-08-28T19:57:21.964Z,2.80
2022-08-28T19:59:48.857Z,2.65
2022-08-28T20:02:15.289Z,2.81
2022-08-28T20:04:41.675Z,2.67
2022-08-28T20:07:08.034Z,3.01
2022-08-28T20:09:34.387Z,2.81
2022-08-28T20:12:00.764Z,2.82
2022-08-28T20:14:27.130Z,3.01
2022-08-28T20:16:53.487Z,3.02
2022-08-28T20:19:19.861Z,2.95
2022-08-28T20:21:46.215Z,2.85
2022-08-28T20:24:12.569Z,3.03
2022-08-28T20:26:38.941Z,2.85
2022-08-28T20:29:05.304Z,2.83
2022-08-28T20:31:31.667Z,2.72
2022-08-28T20:33:58.014Z,2.72
2022-08-28T20:36:24.374Z,2.77
2022-08-28T20:38:50.730Z,2.67
2022-08-28T20:41:17.085Z,3.05
2022-08-28T20:43:43.429Z,2.87
2022-08-28T20:46:09.821Z,2.81
2022-08-28T20:48:36.218Z,2.98
2022-08-28T20:51:02.567Z,2.90
2022-08-28T20:53:37.756Z,2.94
2022-08-28T20:56:04.310Z,2.87
2022-08-28T20:58:30.674Z,2.67
2022-08-28T21:00:59.449Z,2.64
2022-08-28T21:03:27.236Z,2.71
2022-08-28T21:05:54.832Z,2.80
2022-08-28T21:08:21.179Z,2.95
2022-08-28T21:10:47.529Z,2.68
2022-08-28T21:13:13.889Z,2.99
2022-08-28T21:15:40.238Z,2.82
2022-08-28T21:18:06.577Z,2.59
2022-08-28T21:20:32.932Z,2.72
2022-08-28T21:22:59.577Z,2.74
2022-08-28T21:25:25.945Z,2.70
2022-08-28T21:27:52.307Z,2.97
2022-08-28T21:30:18.657Z,2.88
2022-08-28T21:32:45.011Z,2.80
2022-08-28T21:35:11.367Z,2.88
2022-08-28T21:37:37.735Z,2.67
2022-08-28T21:40:04.161Z,2.68
2022-08-28T21:42:30.559Z,2.70
2022-08-28T21:44:56.926Z,2.69
2022-08-28T21:47:23.435Z,2.94
2022-08-28T21:49:49.841Z,2.53
2022-08-28T21:52:16.230Z,2.90
2022-08-28T21:54:42.596Z,2.65
2022-08-28T21:57:08.955Z,2.95
2022-08-28T21:59:38.025Z,2.70
2022-08-28T22:02:04.664Z,2.65
2022-08-28T22:04:31.055Z,2.45
2022-08-28T22:06:57.418Z,2.82
2022-08-28T22:09:23.794Z,2.90
2022-08-28T22:11:50.169Z,2.65
2022-08-28T22:14:16.531Z,2.56
2022-08-28T22:16:42.931Z,2.77
2022-08-28T22:19:09.342Z,2.60
2022-08-28T22:21:35.706Z,2.70
2022-08-28T22:24:02.077Z,2.66
2022-08-28T22:26:28.435Z,2.85
2022-08-28T22:28:54.791Z,2.81
2022-08-28T22:31:21.159Z,2.45
2022-08-28T22:33:47.519Z,2.84
2022-08-28T22:36:13.881Z,2.67
2022-08-28T22:38:40.232Z,2.87
2022-08-28T22:41:06.598Z,2.54
2022-08-28T22:43:32.954Z,2.64
2022-08-28T22:45:59.363Z,2.73
2022-08-28T22:48:25.774Z,2.73
2022-08-28T22:50:52.152Z,2.86
2022-08-28T22:53:18.502Z,2.69
2022-08-28T22:55:44.925Z,2.83
2022-08-28T22:58:11.273Z,2.66
2022-08-28T23:00:37.630Z,2.74
2022-08-28T23:03:04.056Z,2.57
2022-08-28T23:05:30.469Z,2.70
2022-08-28T23:07:56.861Z,2.59
2022-08-28T23:10:42.146Z,3.07
2022-08-28T23:13:09.549Z,2.76
2022-08-28T23:15:40.697Z,2.60
2022-08-28T23:18:07.117Z,2.40
2022-08-28T23:20:34.350Z,2.49
2022-08-28T23:23:01.594Z,2.60
2022-08-28T23:25:27.939Z,2.57
2022-08-28T23:27:54.294Z,2.53
2022-08-28T23:30:20.646Z,2.62
2022-08-28T23:32:46.989Z,2.81
2022-08-28T23:35:13.486Z,2.81
2022-08-28T23:37:39.838Z,2.69
2022-08-28T23:40:06.412Z,2.54
2022-08-28T23:42:32.778Z,2.68
2022-08-28T23:44:59.131Z,2.71
2022-08-28T23:47:27.782Z,2.59
2022-08-28T23:49:54.137Z,2.35
2022-08-28T23:52:20.482Z,2.60
2022-08-28T23:54:48.558Z,2.73
2022-08-28T23:57:14.916Z,2.61
2022-08-28T23:59:41.689Z,2.55
